Map

Track Data

SID SEASON NUMBER BASIN SUBBASIN NAME ISO_TIME NATURE LAT LON WMO_WIND WMO_PRES WMO_AGENCY TRACK_TYPE DIST2LAND LANDFALL IFLAG USA_AGENCY USA_ATCF_ID USA_LAT USA_LON USA_RECORD USA_STATUS USA_WIND USA_PRES USA_SSHS USA_R34_NE USA_R34_SE USA_R34_SW USA_R34_NW USA_R50_NE USA_R50_SE USA_R50_SW USA_R50_NW USA_R64_NE USA_R64_SE USA_R64_SW USA_R64_NW USA_POCI USA_ROCI USA_RMW USA_EYE TOKYO_LAT TOKYO_LON TOKYO_GRADE TOKYO_WIND TOKYO_PRES TOKYO_R50_DIR TOKYO_R50_LONG TOKYO_R50_SHORT TOKYO_R30_DIR TOKYO_R30_LONG TOKYO_R30_SHORT TOKYO_LAND CMA_LAT CMA_LON CMA_CAT CMA_WIND CMA_PRES HKO_LAT HKO_LON HKO_CAT HKO_WIND HKO_PRES NEWDELHI_LAT NEWDELHI_LON NEWDELHI_GRADE NEWDELHI_WIND NEWDELHI_PRES NEWDELHI_CI NEWDELHI_DP NEWDELHI_POCI REUNION_LAT REUNION_LON REUNION_TYPE REUNION_WIND REUNION_PRES REUNION_TNUM REUNION_CI REUNION_RMW REUNION_R34_NE REUNION_R34_SE REUNION_R34_SW REUNION_R34_NW REUNION_R50_NE REUNION_R50_SE REUNION_R50_SW REUNION_R50_NW REUNION_R64_NE REUNION_R64_SE REUNION_R64_SW REUNION_R64_NW BOM_LAT BOM_LON BOM_TYPE BOM_WIND BOM_PRES BOM_TNUM BOM_CI BOM_RMW BOM_R34_NE BOM_R34_SE BOM_R34_SW BOM_R34_NW BOM_R50_NE BOM_R50_SE BOM_R50_SW BOM_R50_NW BOM_R64_NE BOM_R64_SE BOM_R64_SW BOM_R64_NW BOM_ROCI BOM_POCI BOM_EYE BOM_POS_METHOD BOM_PRES_METHOD NADI_LAT NADI_LON NADI_CAT NADI_WIND NADI_PRES WELLINGTON_LAT WELLINGTON_LON WELLINGTON_WIND WELLINGTON_PRES DS824_LAT DS824_LON DS824_STAGE DS824_WIND DS824_PRES TD9636_LAT TD9636_LON TD9636_STAGE TD9636_WIND TD9636_PRES TD9635_LAT TD9635_LON TD9635_WIND TD9635_PRES TD9635_ROCI NEUMANN_LAT NEUMANN_LON NEUMANN_CLASS NEUMANN_WIND NEUMANN_PRES MLC_LAT MLC_LON MLC_CLASS MLC_WIND MLC_PRES USA_GUST BOM_GUST BOM_GUST_PER REUNION_GUST REUNION_GUST_PER USA_SEAHGT USA_SEARAD_NE USA_SEARAD_SE USA_SEARAD_SW USA_SEARAD_NW STORM_SPEED STORM_DIR
1956076S13057 1956 27 SI MM NOT_NAMED 1956-03-16 00:00:00 NR -13.4000 56.5000 reunion main 677 667 ______________ -1 1 265
1956076S13057 1956 27 SI MM NOT_NAMED 1956-03-16 03:00:00 NR -13.4045 56.4470 main 667 667 ______________ -1 1 284
1956076S13057 1956 27 SI MM NOT_NAMED 1956-03-16 06:00:00 NR -13.3867 56.4449 reunion main 667 667 _____O________ -1 -13.3000 56.6000 99 9.90000 0 286
1956076S13057 1956 27 SI MM NOT_NAMED 1956-03-16 09:00:00 NR -13.3933 56.4021 main 667 667 _____P________ -1 -13.2996 56.5312 99 0 241
1956076S13057 1956 27 SI MM NOT_NAMED 1956-03-16 12:00:00 TS -13.4059 56.4002 main 667 663 O____P___OO___ jtwc_sh SH271956 -13.4000 56.5000 -1 -13.3063 56.4619 99 -13.4000 56.5000 TC -13.4000 56.5000 2 1 216
1956076S13057 1956 27 SI MM NOT_NAMED 1956-03-16 15:00:00 TS -13.4650 56.3473 main 653 650 P____P___PP___ SH271956 -13.4950 56.3975 -1 -13.3274 56.3914 99 -13.4950 56.3975 TC -13.4968 56.4187 2 2 218
1956076S13057 1956 27 SI MM NOT_NAMED 1956-03-16 18:00:00 TS -13.5613 56.2746 main 650 636 O____P___OP___ jtwc_sh SH271956 -13.6000 56.3000 -1 -13.3700 56.3191 99 -13.6000 56.3000 TC -13.6049 56.3299 2 3 214
1956076S13057 1956 27 SI MM NOT_NAMED 1956-03-16 21:00:00 TS -13.6879 56.1928 main 636 623 P____P___PP___ SH271956 -13.7275 56.2075 -1 -13.4414 56.2445 99 -13.7275 56.2075 TC -13.7356 56.2261 2 3 211
1956076S13057 1956 27 SI MM NOT_NAMED 1956-03-17 00:00:00 TS -13.8498 56.0934 main 623 607 O____P___OO___ jtwc_sh SH271956 -13.9000 56.1000 -1 -13.5488 56.1668 99 -13.9000 56.1000 TC 35 -13.9000 56.1000 2 4 210
1956076S13057 1956 27 SI MM NOT_NAMED 1956-03-17 03:00:00 TS -14.0611 55.9727 main 604 578 P____P___PP___ SH271956 -14.1275 55.9575 -1 -13.6992 56.0855 99 -14.1275 55.9575 TC 35 -14.1076 55.9483 2 5 207
1956076S13057 1956 27 SI MM NOT_NAMED 1956-03-17 06:00:00 TS -14.3182 55.8418 reunion main 578 563 O____O___OP___ jtwc_sh SH271956 -14.4000 55.8000 -1 -13.9000 56.0000 99 9.90000 -14.4000 55.8000 TC 35 -14.3601 55.7852 2 6 205
1956076S13057 1956 27 SI MM NOT_NAMED 1956-03-17 09:00:00 TS -14.6008 55.7080 main 563 548 P____P___PP___ SH271956 -14.6700 55.6350 -1 -14.1552 55.9099 99 -14.6700 55.6350 TC 35 -14.6576 55.6295 2 7 202
1956076S13057 1956 27 SI MM NOT_NAMED 1956-03-17 12:00:00 TS -14.9304 55.5906 main 548 536 O____P___OO___ jtwc_sh SH271956 -15.0000 55.5000 -1 -14.4566 55.8167 99 -15.0000 55.5000 TC 35 -15.0000 55.5000 2 8 195
1956076S13057 1956 27 SI MM NOT_NAMED 1956-03-17 15:00:00 TS -15.3259 55.5098 main 536 535 P____P___PP___ SH271956 -15.4350 55.4349 -1 -14.7929 55.7223 99 -15.4350 55.4349 TC 35 -15.4143 55.4131 2 8 190
1956076S13057 1956 27 SI MM NOT_NAMED 1956-03-17 18:00:00 TS -15.7459 55.4477 main 526 499 O____P___OP___ jtwc_sh SH271956 -15.9000 55.4000 -1 -15.1527 55.6286 99 -15.9000 55.4000 TC 35 -15.8649 55.3549 2 8 188
1956076S13057 1956 27 SI MM NOT_NAMED 1956-03-17 21:00:00 TS -16.1515 55.3830 main 489 464 P____P___PP___ SH271956 -16.3300 55.3425 -1 -15.5246 55.5376 99 -16.3300 55.3425 TC 35 -16.3081 55.3193 2 8 188
1956076S13057 1956 27 SI MM NOT_NAMED 1956-03-18 00:00:00 TS -16.5195 55.3302 main 464 436 O____P___OO___ jtwc_sh SH271956 -16.7000 55.3000 -1 -15.8974 55.4511 99 -16.7000 55.3000 TC 35 -16.7000 55.3000 2 7 186
1956076S13057 1956 27 SI MM NOT_NAMED 1956-03-18 03:00:00 TS -16.8151 55.3077 main 436 407 P____P___PP___ SH271956 -16.9800 55.2925 -1 -16.2596 55.3712 99 -16.9800 55.2925 TC 35 -16.9784 55.2976 2 6 184
1956076S13057 1956 27 SI MM NOT_NAMED 1956-03-18 06:00:00 TS -17.0689 55.2981 reunion main 407 389 O____O___OP___ jtwc_sh SH271956 -17.2000 55.3000 -1 -16.6000 55.3000 99 9.90000 -17.2000 55.3000 TC 35 -17.2024 55.3072 2 5 0
1956076S13057 1956 27 SI MM NOT_NAMED 1956-03-18 09:00:00 TS -17.2935 55.2996 main 389 371 P____P___PP___ SH271956 -17.4000 55.3075 -1 -16.8704 55.2847 99 -17.4000 55.3075 TC 35 -17.4003 55.3132 2 4 0
1956076S13057 1956 27 SI MM NOT_NAMED 1956-03-18 12:00:00 TS -17.5134 55.2929 main 371 354 O____P___OO___ jtwc_sh SH271956 -17.6000 55.3000 -1 -17.1235 55.2831 99 -17.6000 55.3000 TC 35 -17.6000 55.3000 2 5 183
1956076S13057 1956 27 SI MM NOT_NAMED 1956-03-18 15:00:00 TS -17.7559 55.2742 main 346 335 P____P___PP___ SH271956 -17.8425 55.2650 -1 -17.3632 55.2852 99 -17.8425 55.2650 TC 35 -17.8466 55.2949 2 5 186
1956076S13057 1956 27 SI MM NOT_NAMED 1956-03-18 18:00:00 TS -18.0032 55.2314 main 335 313 O____P___OP___ jtwc_sh SH271956 -18.1000 55.2000 -1 -17.5935 55.2811 99 -18.1000 55.2000 TC 35 -18.0995 55.2619 2 5 192
1956076S13057 1956 27 SI MM NOT_NAMED 1956-03-18 21:00:00 TS -18.2493 55.1707 main 313 280 P____P___PP___ SH271956 -18.3574 55.1449 -1 -17.8183 55.2607 99 -18.3574 55.1449 TC 35 -18.3527 55.1729 2 5 200
1956076S13057 1956 27 SI MM NOT_NAMED 1956-03-19 00:00:00 TS -18.4884 55.0428 main 281 260 O____P___OO___ jtwc_sh SH271956 -18.6000 55.0000 -1 -18.0418 55.2138 99 -18.6000 55.0000 TC 35 -18.6000 55.0000 2 6 218
1956076S13057 1956 27 SI MM NOT_NAMED 1956-03-19 03:00:00 TS -18.7056 54.7974 main 262 246 P____P___PP___ SH271956 -18.8000 54.6949 -1 -18.2677 55.1303 99 -18.8000 54.6949 TC 35 -18.8206 54.6952 2 7 231
1956076S13057 1956 27 SI MM NOT_NAMED 1956-03-19 06:00:00 TS -18.9227 54.4808 reunion main 249 236 O____O___OP___ jtwc_sh SH271956 -19.0000 54.3000 -1 -18.5000 55.0000 99 9.90000 -19.0000 54.3000 TC 35 -19.0358 54.3102 2 8 235
1956076S13057 1956 27 SI MM NOT_NAMED 1956-03-19 09:00:00 TS -19.1480 54.1199 main 246 233 P____P___PP___ SH271956 -19.2351 53.8925 -1 -18.7417 54.8154 99 -19.2351 53.8925 TC 35 -19.2581 53.8951 2 8 236
1956076S13057 1956 27 SI MM NOT_NAMED 1956-03-19 12:00:00 TS -19.3892 53.7535 main 237 236 O____P___OO___ jtwc_sh SH271956 -19.5000 53.5000 -1 -18.9923 54.5804 99 -19.5000 53.5000 TC 35 -19.5000 53.5000 2 8 233
1956076S13057 1956 27 SI MM NOT_NAMED 1956-03-19 15:00:00 TS -19.6496 53.4202 main 251 244 P____P___PP___ SH271956 -19.7924 53.1774 -1 -19.2502 54.3019 99 -19.7924 53.1774 TC 35 -19.7701 53.1758 2 8 229
1956076S13057 1956 27 SI MM NOT_NAMED 1956-03-19 18:00:00 TS -19.9258 53.1085 main 256 250 O____P___OP___ jtwc_sh SH271956 -20.1000 52.9000 -1 -19.5141 53.9868 99 -20.1000 52.9000 TC 35 -20.0623 52.8824 2 8 226
1956076S13057 1956 27 SI MM NOT_NAMED 1956-03-19 21:00:00 TS -20.2077 52.8089 main 269 265 P____P___PP___ SH271956 -20.3925 52.6274 -1 -19.7824 53.6420 99 -20.3925 52.6274 TC 35 -20.3733 52.6227 2 8 222
1956076S13057 1956 27 SI MM NOT_NAMED 1956-03-20 00:00:00 TS -20.5095 52.5448 main 288 286 O____P___OO___ jtwc_sh SH271956 -20.7000 52.4000 -1 -20.0538 53.2745 99 -20.7000 52.4000 TC 35 -20.7000 52.4000 2 8 214
1956076S13057 1956 27 SI MM NOT_NAMED 1956-03-20 03:00:00 TS -20.8546 52.3427 main 301 301 P____P___PP___ SH271956 -21.0424 52.2349 -1 -20.3267 52.8915 99 -21.0424 52.2349 TC 35 -21.0475 52.2217 2 8 206
1956076S13057 1956 27 SI MM NOT_NAMED 1956-03-20 06:00:00 TS -21.2251 52.1765 reunion main 311 311 O____O___OP___ jtwc_sh SH271956 -21.4000 52.1000 -1 -20.6000 52.5000 99 9.90000 -21.4000 52.1000 TC 35 -21.4071 52.0768 2 8 200
1956076S13057 1956 27 SI MM NOT_NAMED 1956-03-20 09:00:00 TS -21.6298 52.0369 main 336 336 P________PP___ SH271956 -21.7500 51.9574 -1 99 -21.7500 51.9574 TC 35 -21.7632 51.9436 2 9 197
1956076S13057 1956 27 SI MM NOT_NAMED 1956-03-20 12:00:00 TS -22.0447 51.9017 main 355 355 O________OO___ jtwc_sh SH271956 -22.1000 51.8000 -1 99 -22.1000 51.8000 TC 35 -22.1000 51.8000 2 9 197
1956076S13057 1956 27 SI MM NOT_NAMED 1956-03-20 15:00:00 TS -22.4756 51.7555 main 378 367 P________PP___ SH271956 -22.4725 51.6076 -1 99 -22.4725 51.6076 TC 35 -22.4452 51.6268 2 9 198
1956076S13057 1956 27 SI MM NOT_NAMED 1956-03-20 18:00:00 TS -22.8795 51.6055 main 370 359 O________OP___ jtwc_sh SH271956 -22.8000 51.4000 -1 99 -22.8000 51.4000 TC 35 -22.7623 51.4380 2 8 204
1956076S13057 1956 27 SI MM NOT_NAMED 1956-03-20 21:00:00 TS -23.1879 51.4088 main 363 349 P________PP___ SH271956 -23.0524 51.2075 -1 99 -23.0524 51.2075 TC 35 -23.0233 51.2301 2 6 220
1956076S13057 1956 27 SI MM NOT_NAMED 1956-03-21 00:00:00 TS -23.3671 51.1674 main 351 321 O________OO___ jtwc_sh SH271956 -23.2000 51.0000 -1 99 -23.2000 51.0000 TC 35 -23.2000 51.0000 2 5 250
1956076S13057 1956 27 SI MM NOT_NAMED 1956-03-21 03:00:00 TS -23.3741 50.8638 main 321 277 P________PP___ SH271956 -23.2375 50.7649 -1 99 -23.2375 50.7649 TC 35 -23.2610 50.7662 2 6 282
1956076S13057 1956 27 SI MM NOT_NAMED 1956-03-21 06:00:00 TS -23.2333 50.4834 reunion main 277 247 O________OP___ jtwc_sh SH271956 -23.2000 50.5000 -1 -23.2000 50.5000 TC 35 -23.2395 50.5092 2 6 287
1956076S13057 1956 27 SI MM NOT_NAMED 1956-03-21 09:00:00 TS -23.1842 50.1884 main 247 215 P________PP___ SH271956 -23.1499 50.2149 -1 -23.1499 50.2149 TC 35 -23.1734 50.2226 2 6 281
1956076S13057 1956 27 SI MM NOT_NAMED 1956-03-21 12:00:00 TS -23.1260 49.8641 main 215 175 O________OO___ jtwc_sh SH271956 -23.1000 49.9000 -1 -23.1000 49.9000 TC 35 -23.1000 49.9000 2 6 278
1956076S13057 1956 27 SI MM NOT_NAMED 1956-03-21 15:00:00 TS -23.0963 49.5224 main 175 144 P________PP___ SH271956 -23.0999 49.5726 -1 -23.0999 49.5726 TC 35 -23.0545 49.5517 2 7 275
1956076S13057 1956 27 SI MM NOT_NAMED 1956-03-21 18:00:00 TS -23.0685 49.1444 main 134 102 O________OP___ jtwc_sh SH271956 -23.1000 49.2000 -1 -23.1000 49.2000 TC 35 -23.0121 49.1667 2 7 276
1956076S13057 1956 27 SI MM NOT_NAMED 1956-03-21 21:00:00 TS -23.0216 48.7265 main 92 52 P________PP___ SH271956 -23.0424 48.7723 -1 -23.0424 48.7723 TC 35 -22.9887 48.7484 2 8 275
1956076S13057 1956 27 SI MM NOT_NAMED 1956-03-22 00:00:00 TS -23.0000 48.2750 main 52 10 O________OO___ jtwc_sh SH271956 -23.0000 48.3000 -1 -23.0000 48.3000 TC 35 -23.0000 48.3000 2 9 269
1956076S13057 1956 27 SI MM NOT_NAMED 1956-03-22 03:00:00 TS -23.0401 47.7956 main 10 0 P________PP___ SH271956 -23.0199 47.8074 -1 -23.0199 47.8074 TC 35 -23.0438 47.8246 2 9 262
1956076S13057 1956 27 SI MM NOT_NAMED 1956-03-22 06:00:00 TS -23.1268 47.2959 reunion main 0 0 O________OP___ jtwc_sh SH271956 -23.1000 47.3000 -1 -23.1000 47.3000 TC 35 -23.1251 47.3222 2 9 257
1956076S13057 1956 27 SI MM NOT_NAMED 1956-03-22 09:00:00 TS -23.2525 46.7940 main 0 0 P________PP___ SH271956 -23.2273 46.8000 -1 -23.2273 46.8000 TC 35 -23.2437 46.8087 2 10 253
1956076S13057 1956 27 SI MM NOT_NAMED 1956-03-22 12:00:00 TS -23.4155 46.2929 main 0 0 O________OO___ jtwc_sh SH271956 -23.4000 46.3000 -1 -23.4000 46.3000 TC 35 -23.4000 46.3000 2 10 249
1956076S13057 1956 27 SI MM NOT_NAMED 1956-03-22 15:00:00 TS -23.5979 45.7946 main 0 0 P________PP___ SH271956 -23.5849 45.7924 -1 -23.5849 45.7924 TC 35 -23.5925 45.8083 2 10 246
1956076S13057 1956 27 SI MM NOT_NAMED 1956-03-22 18:00:00 TS -23.8062 45.3136 main 0 0 O________OP___ jtwc_sh SH271956 -23.8000 45.3000 -1 -23.8000 45.3000 TC 35 -23.8132 45.3316 2 10 243
1956076S13057 1956 27 SI MM NOT_NAMED 1956-03-22 21:00:00 TS -24.0282 44.8642 main 0 0 P________PP___ SH271956 -24.0427 44.8403 -1 -24.0427 44.8403 TC 35 -24.0523 44.8640 2 9 241
1956076S13057 1956 27 SI MM NOT_NAMED 1956-03-23 00:00:00 TS -24.2429 44.4571 reunion main 0 0 O________OO___ jtwc_sh SH271956 -24.3000 44.4000 -1 -24.3000 44.4000 TC 35 -24.3000 44.4000 2 7 240
1956076S13057 1956 27 SI MM NOT_NAMED 1956-03-23 03:00:00 NR -24.4028 44.1649 main 0 0 ______________ SH271956 -1 TC 2 6 235
1956076S13057 1956 27 SI MM NOT_NAMED 1956-03-23 06:00:00 NR -24.6092 43.8789 main 0 0 ______________ -1 2 6 229
1956076S13057 1956 27 SI MM NOT_NAMED 1956-03-23 09:00:00 NR -24.8189 43.6349 main 30 30 ______________ -1 2 6 224
1956076S13057 1956 27 SI MM NOT_NAMED 1956-03-23 12:00:00 NR -25.0315 43.4261 main 60 60 ______________ -1 6 220
1956076S13057 1956 27 SI MM NOT_NAMED 1956-03-23 15:00:00 NR -25.2466 43.2453 main 83 83 ______________ -1 5 216
1956076S13057 1956 27 SI MM NOT_NAMED 1956-03-23 18:00:00 NR -25.4634 43.0854 main 106 106 ______________ -1 5 213
1956076S13057 1956 27 SI MM NOT_NAMED 1956-03-23 21:00:00 NR -25.6814 42.9394 main 135 135 ______________ -1 5 210
1956076S13057 1956 27 SI MM NOT_NAMED 1956-03-24 00:00:00 NR -25.9000 42.8000 reunion main 156 ______________ -1 5 210

About IBTrACS Database

This database is a web-friendly format of International Best Track Archive for Climate Stewardship (IBTrACS), a global best track data archive curated by NOAA dating back to 1842.

Updated: 2021-10-21